createdAt,value
2019-05-25T00:00:55.271Z,8.13
2019-05-25T00:03:59.296Z,10.37
2019-05-25T00:07:03.595Z,7.70
2019-05-25T00:10:08.405Z,8.83
2019-05-25T00:13:12.434Z,14.87
2019-05-25T00:16:16.485Z,8.93
2019-05-25T00:19:20.765Z,11.23
2019-05-25T00:22:25.112Z,12.23
2019-05-25T00:25:29.186Z,14.03
2019-05-25T00:28:33.462Z,13.23
2019-05-25T00:31:37.336Z,10.63
2019-05-25T00:34:41.881Z,9.73
2019-05-25T00:37:46.052Z,10.63
2019-05-25T00:40:50.074Z,11.17
2019-05-25T00:43:54.603Z,10.33
2019-05-25T00:46:58.556Z,9.97
2019-05-25T00:50:02.582Z,8.30
2019-05-25T00:53:06.569Z,10.67
2019-05-25T00:56:11.218Z,10.77
2019-05-25T00:59:15.314Z,12.17
2019-05-25T01:02:19.332Z,11.60
2019-05-25T01:05:23.673Z,9.33
2019-05-25T01:08:27.881Z,10.97
2019-05-25T01:11:32.115Z,11.47
2019-05-25T01:14:36.140Z,9.27
2019-05-25T01:17:40.451Z,13.23
2019-05-25T01:20:44.955Z,11.67
2019-05-25T01:23:49.208Z,13.77
2019-05-25T01:26:53.416Z,10.77
2019-05-25T01:29:57.944Z,12.07
2019-05-25T01:33:02.473Z,16.03
2019-05-25T01:36:06.572Z,11.27
2019-05-25T01:39:10.508Z,14.07
2019-05-25T01:42:14.794Z,15.10
2019-05-25T01:45:19.415Z,10.17
2019-05-25T01:48:23.352Z,10.13
2019-05-25T01:51:27.552Z,12.93
2019-05-25T01:54:31.819Z,9.70
2019-05-25T01:57:35.847Z,14.70
2019-05-25T02:00:40.354Z,11.23
2019-05-25T02:03:44.356Z,12.63
2019-05-25T02:06:48.370Z,13.00
2019-05-25T02:09:52.375Z,17.03
2019-05-25T02:12:56.819Z,22.30
2019-05-25T02:16:01.087Z,15.90
2019-05-25T02:19:05.576Z,15.57
2019-05-25T02:22:09.880Z,15.40
2019-05-25T02:25:18.356Z,27.47
2019-05-25T02:28:20.493Z,28.37
2019-05-25T02:31:24.828Z,31.10
2019-05-25T02:34:28.829Z,37.93
2019-05-25T02:37:33.064Z,30.23
2019-05-25T02:40:37.430Z,23.80
2019-05-25T02:43:41.433Z,24.50
2019-05-25T02:46:45.811Z,24.63
2019-05-25T02:49:50.546Z,17.53
2019-05-25T02:52:55.248Z,17.07
2019-05-25T02:55:59.189Z,19.93
2019-05-25T02:59:03.244Z,24.00
2019-05-25T03:02:07.545Z,23.27
2019-05-25T03:05:15.486Z,21.77
2019-05-25T03:08:19.597Z,25.27
2019-05-25T03:11:23.735Z,23.27
2019-05-25T03:14:28.102Z,25.50
2019-05-25T03:17:32.415Z,22.80
2019-05-25T03:20:36.739Z,23.50
2019-05-25T03:23:41.005Z,17.03
2019-05-25T03:26:47.478Z,16.40
2019-05-25T03:29:51.637Z,17.40
2019-05-25T03:32:55.918Z,17.43
2019-05-25T03:35:59.872Z,19.47
2019-05-25T03:39:05.865Z,25.70
2019-05-25T03:42:10.137Z,25.73
2019-05-25T03:45:14.162Z,22.93
2019-05-25T03:48:18.502Z,24.73
2019-05-25T03:51:22.800Z,26.93
2019-05-25T03:54:26.858Z,28.07
2019-05-25T03:57:31.167Z,20.63
2019-05-25T04:00:36.741Z,21.13
2019-05-25T04:03:40.647Z,17.83
2019-05-25T04:06:44.828Z,19.37
2019-05-25T04:09:49.042Z,20.47
2019-05-25T04:12:52.992Z,20.50
2019-05-25T04:15:57.280Z,18.23
2019-05-25T04:19:01.161Z,19.27
2019-05-25T04:22:05.619Z,19.77
2019-05-25T04:25:10.147Z,21.67
2019-05-25T04:28:14.360Z,25.47
2019-05-25T04:31:18.689Z,25.40
2019-05-25T04:34:22.728Z,22.97
2019-05-25T04:37:26.964Z,20.10
2019-05-25T04:40:30.953Z,25.67
2019-05-25T04:43:35.665Z,20.00
2019-05-25T04:46:39.925Z,19.27
2019-05-25T04:49:44.041Z,14.57
2019-05-25T04:52:48.223Z,17.40
2019-05-25T04:55:52.732Z,20.43
2019-05-25T04:58:57.269Z,14.70
2019-05-25T05:02:01.877Z,17.37
2019-05-25T05:05:07.092Z,17.20
2019-05-25T05:08:11.383Z,19.63
2019-05-25T05:11:15.712Z,22.53
2019-05-25T05:14:19.809Z,22.73
2019-05-25T05:17:23.744Z,19.77
2019-05-25T05:20:27.786Z,16.77
2019-05-25T05:23:32.274Z,18.53
2019-05-25T05:26:36.505Z,15.97
2019-05-25T05:29:40.977Z,18.77
2019-05-25T05:32:45.351Z,17.97
2019-05-25T05:35:50.439Z,19.47
2019-05-25T05:38:55.529Z,17.73
2019-05-25T05:42:01.053Z,19.17
2019-05-25T05:45:06.217Z,13.13
2019-05-25T05:48:12.537Z,14.23
2019-05-25T05:51:19.993Z,16.20
2019-05-25T05:54:24.143Z,13.23
2019-05-25T05:57:28.131Z,17.03
2019-05-25T06:00:32.172Z,18.13
2019-05-25T06:03:36.663Z,23.23
2019-05-25T06:06:41.053Z,16.20
2019-05-25T06:09:45.617Z,18.17
2019-05-25T06:12:50.246Z,21.70
2019-05-25T06:15:56.080Z,16.90
2019-05-25T06:19:00.434Z,17.27
2019-05-25T06:22:04.717Z,15.87
2019-05-25T06:25:09.586Z,21.37
2019-05-25T06:28:13.859Z,27.57
2019-05-25T06:31:18.283Z,23.43
2019-05-25T06:34:22.297Z,21.27
2019-05-25T06:37:26.869Z,18.80
2019-05-25T06:40:30.892Z,20.63
2019-05-25T06:43:35.149Z,21.90
2019-05-25T06:46:39.920Z,22.07
2019-05-25T06:49:44.171Z,20.97
2019-05-25T06:52:48.203Z,22.20
2019-05-25T06:55:52.154Z,25.03
2019-05-25T06:58:56.608Z,24.10
2019-05-25T07:02:00.684Z,22.23
2019-05-25T07:05:05.577Z,22.90
2019-05-25T07:08:09.894Z,24.63
2019-05-25T07:11:13.925Z,24.03
2019-05-25T07:14:18.236Z,25.30
2019-05-25T07:17:22.659Z,24.57
2019-05-25T07:20:27.462Z,22.07
2019-05-25T07:23:31.514Z,21.83
2019-05-25T07:26:35.551Z,22.23
2019-05-25T07:29:39.829Z,23.97
2019-05-25T07:32:44.090Z,23.33
2019-05-25T07:35:48.306Z,20.53
2019-05-25T07:38:52.377Z,25.60
2019-05-25T07:41:56.648Z,19.10
2019-05-25T07:45:00.957Z,19.30
2019-05-25T07:48:04.995Z,18.90
2019-05-25T07:51:09.418Z,18.90
2019-05-25T07:54:13.954Z,16.67
2019-05-25T07:57:18.247Z,16.07
2019-05-25T08:00:22.284Z,15.00
2019-05-25T08:03:26.739Z,16.80
2019-05-25T08:06:31.451Z,14.33
2019-05-25T08:09:36.120Z,13.23
2019-05-25T08:12:40.695Z,15.13
2019-05-25T08:15:45.097Z,15.00
2019-05-25T08:18:49.603Z,18.07
2019-05-25T08:21:54.647Z,12.97
2019-05-25T08:24:59.765Z,17.13
2019-05-25T08:28:05.430Z,11.43
2019-05-25T08:31:11.059Z,15.17
2019-05-25T08:34:18.242Z,14.27
2019-05-25T08:37:25.690Z,15.60
2019-05-25T08:40:30.053Z,14.57
2019-05-25T08:43:34.266Z,15.37
2019-05-25T08:46:38.678Z,13.90
2019-05-25T08:49:44.290Z,17.17
2019-05-25T08:52:50.832Z,13.53
2019-05-25T08:55:58.395Z,12.87
2019-05-25T08:59:07.197Z,25.17
2019-05-25T09:02:14.767Z,16.00
2019-05-25T09:05:20.398Z,13.97
2019-05-25T09:08:25.030Z,13.67
2019-05-25T09:11:29.105Z,16.53
2019-05-25T09:14:33.156Z,14.67
2019-05-25T09:17:37.262Z,16.57
2019-05-25T09:20:41.284Z,17.20
2019-05-25T09:23:48.594Z,16.63
2019-05-25T09:26:51.290Z,16.20
2019-05-25T09:29:55.324Z,15.97
2019-05-25T09:32:59.642Z,19.73
2019-05-25T09:36:03.681Z,16.23
2019-05-25T09:39:08.713Z,17.00
2019-05-25T09:42:12.658Z,17.57
2019-05-25T09:45:17.545Z,13.40
2019-05-25T09:48:20.329Z,15.60
2019-05-25T09:51:24.641Z,13.47
2019-05-25T09:54:29.082Z,15.90
2019-05-25T09:57:33.446Z,17.30
2019-05-25T10:00:40.380Z,15.57
2019-05-25T10:03:43.208Z,15.67
2019-05-25T10:06:47.485Z,13.73
2019-05-25T10:09:51.502Z,13.10
2019-05-25T10:12:55.572Z,14.63
2019-05-25T10:15:59.521Z,14.40
2019-05-25T10:19:03.874Z,10.70
2019-05-25T10:22:07.883Z,14.70
2019-05-25T10:25:13.335Z,13.90
2019-05-25T10:28:17.339Z,14.03
2019-05-25T10:31:21.593Z,12.53
2019-05-25T10:34:25.532Z,13.27
2019-05-25T10:37:29.612Z,11.93
2019-05-25T10:40:33.824Z,12.67
2019-05-25T10:43:37.845Z,12.07
2019-05-25T10:46:42.144Z,13.57
2019-05-25T10:49:46.465Z,15.10
2019-05-25T10:52:50.477Z,12.00
2019-05-25T10:55:54.841Z,15.37
2019-05-25T10:58:59.021Z,20.40
2019-05-25T11:02:03.135Z,10.50
2019-05-25T11:05:09.382Z,12.63
2019-05-25T11:08:13.639Z,10.10
2019-05-25T11:11:17.997Z,11.97
2019-05-25T11:14:22.054Z,12.77
2019-05-25T11:17:25.912Z,11.73
2019-05-25T11:20:29.938Z,14.33
2019-05-25T11:23:33.941Z,13.30
2019-05-25T11:26:38.553Z,12.67
2019-05-25T11:29:42.865Z,10.13
2019-05-25T11:32:46.874Z,11.47
2019-05-25T11:35:51.249Z,11.53
2019-05-25T11:38:55.280Z,10.97
2019-05-25T11:41:59.788Z,10.13
2019-05-25T11:45:04.138Z,8.23
2019-05-25T11:48:08.505Z,9.80
2019-05-25T11:51:12.780Z,12.63
2019-05-25T11:54:16.797Z,14.43
2019-05-25T11:57:21.137Z,13.00
2019-05-25T12:00:26.222Z,8.63
2019-05-25T12:03:30.233Z,8.47
2019-05-25T12:06:34.169Z,10.17
2019-05-25T12:09:38.445Z,15.60
2019-05-25T12:12:42.696Z,8.13
2019-05-25T12:15:46.877Z,10.00
2019-05-25T12:18:50.874Z,7.13
2019-05-25T12:21:55.124Z,9.37
2019-05-25T12:24:59.447Z,8.60
2019-05-25T12:28:03.535Z,12.63
2019-05-25T12:31:07.577Z,7.97
2019-05-25T12:34:11.805Z,8.90
2019-05-25T12:37:16.175Z,9.17
2019-05-25T12:40:20.864Z,7.13
2019-05-25T12:43:24.716Z,7.47
2019-05-25T12:46:28.691Z,9.77
2019-05-25T12:49:49.389Z,8.53
2019-05-25T12:52:38.758Z,10.10
2019-05-25T12:55:42.982Z,8.70
2019-05-25T12:58:49.558Z,8.83
2019-05-25T13:01:53.059Z,8.90
2019-05-25T13:04:57.507Z,7.47
2019-05-25T13:08:01.513Z,6.97
2019-05-25T13:11:09.388Z,8.33
2019-05-25T13:14:14.471Z,8.23
2019-05-25T13:17:17.310Z,6.80
2019-05-25T13:20:21.321Z,7.67
2019-05-25T13:23:25.555Z,5.97
2019-05-25T13:26:30.321Z,9.47
2019-05-25T13:29:34.565Z,10.50
2019-05-25T13:32:38.546Z,8.60
2019-05-25T13:35:42.602Z,9.83
2019-05-25T13:38:47.317Z,12.40
2019-05-25T13:41:51.377Z,9.30
2019-05-25T13:44:55.933Z,8.47
2019-05-25T13:47:59.923Z,8.40
2019-05-25T13:51:03.973Z,7.97
2019-05-25T13:54:08.289Z,10.63
2019-05-25T13:57:12.925Z,7.83
2019-05-25T14:00:17.434Z,12.43
2019-05-25T14:03:21.381Z,10.97
2019-05-25T14:06:25.455Z,6.70
2019-05-25T14:09:29.755Z,8.37
2019-05-25T14:12:33.711Z,8.37
2019-05-25T14:15:37.990Z,6.87
2019-05-25T14:18:41.994Z,7.43
2019-05-25T14:21:45.921Z,7.43
2019-05-25T14:24:50.088Z,9.37
2019-05-25T14:27:54.022Z,9.00
2019-05-25T14:30:58.034Z,7.10
2019-05-25T14:34:02.037Z,7.77
2019-05-25T14:37:06.287Z,5.93
2019-05-25T14:40:11.912Z,3.90
2019-05-25T14:43:16.472Z,4.20
2019-05-25T14:46:28.001Z,5.50
2019-05-25T14:49:27.224Z,5.30
2019-05-25T14:52:31.244Z,6.70
2019-05-25T14:55:35.665Z,5.57
2019-05-25T14:58:40.237Z,5.20
2019-05-25T15:01:59.591Z,5.17
2019-05-25T15:04:50.321Z,3.87
2019-05-25T15:07:54.702Z,4.73
2019-05-25T15:10:59.021Z,3.33
2019-05-25T15:14:03.375Z,2.87
2019-05-25T15:17:07.364Z,3.07
2019-05-25T15:20:12.348Z,5.53
2019-05-25T15:23:16.618Z,4.33
2019-05-25T15:26:20.565Z,4.67
2019-05-25T15:29:24.868Z,1.97
2019-05-25T15:32:28.968Z,3.33
2019-05-25T15:35:33.014Z,2.87
2019-05-25T15:38:36.886Z,3.07
2019-05-25T15:41:40.829Z,1.63
2019-05-25T15:44:45.958Z,4.63
2019-05-25T15:47:49.969Z,4.03
2019-05-25T15:50:53.967Z,1.60
2019-05-25T15:53:57.999Z,2.07
2019-05-25T15:57:02.019Z,7.57
2019-05-25T16:00:08.068Z,20.83
2019-05-25T16:03:12.134Z,6.47
2019-05-25T16:06:16.132Z,8.97
2019-05-25T16:09:20.403Z,3.03
2019-05-25T16:12:24.348Z,8.57
2019-05-25T16:15:28.562Z,5.57
2019-05-25T16:18:32.955Z,1.97
2019-05-25T16:21:37.500Z,3.30
2019-05-25T16:24:41.521Z,4.10
2019-05-25T16:27:46.165Z,19.97
2019-05-25T16:30:50.505Z,3.57
2019-05-25T16:33:54.542Z,7.37
2019-05-25T16:36:59.090Z,2.47
2019-05-25T16:40:03.442Z,2.60
2019-05-25T16:43:07.456Z,2.83
2019-05-25T16:46:11.537Z,3.47
2019-05-25T16:49:16.868Z,19.33
2019-05-25T16:52:20.812Z,4.77
2019-05-25T16:55:25.076Z,2.00
2019-05-25T16:58:29.672Z,3.33
2019-05-25T17:01:47.430Z,3.10
2019-05-25T17:04:39.429Z,1.23
2019-05-25T17:07:43.443Z,3.00
2019-05-25T17:10:47.441Z,1.47
2019-05-25T17:13:51.753Z,7.53
2019-05-25T17:16:55.899Z,3.77
2019-05-25T17:20:00.075Z,1.80
2019-05-25T17:23:04.442Z,2.00
2019-05-25T17:26:08.506Z,8.17
2019-05-25T17:29:12.823Z,4.00
2019-05-25T17:32:16.836Z,3.40
2019-05-25T17:35:20.871Z,2.33
2019-05-25T17:38:24.969Z,1.53
2019-05-25T17:41:28.993Z,1.60
2019-05-25T17:44:33.374Z,0.97
2019-05-25T17:47:37.693Z,1.27
2019-05-25T17:50:41.737Z,5.47
2019-05-25T17:53:46.003Z,1.50
2019-05-25T17:56:50.526Z,1.47
2019-05-25T17:59:54.802Z,2.60
2019-05-25T18:02:58.738Z,1.30
2019-05-25T18:06:02.759Z,1.13
2019-05-25T18:09:08.087Z,4.23
2019-05-25T18:12:12.089Z,1.70
2019-05-25T18:15:16.222Z,4.77
2019-05-25T18:18:21.228Z,2.67
2019-05-25T18:21:25.176Z,5.70
2019-05-25T18:24:29.566Z,4.53
2019-05-25T18:27:34.090Z,2.33
2019-05-25T18:30:38.376Z,3.57
2019-05-25T18:33:42.372Z,2.27
2019-05-25T18:36:46.664Z,3.93
2019-05-25T18:39:50.686Z,4.00
2019-05-25T18:42:54.550Z,3.43
2019-05-25T18:45:58.633Z,4.07
2019-05-25T18:49:02.942Z,3.00
2019-05-25T18:52:07.240Z,4.67
2019-05-25T18:55:11.478Z,2.90
2019-05-25T18:58:15.919Z,6.93
2019-05-25T19:01:19.951Z,4.10
2019-05-25T19:04:41.846Z,5.97
2019-05-25T19:07:30.100Z,6.93
2019-05-25T19:10:34.153Z,2.80
2019-05-25T19:13:38.816Z,3.77
2019-05-25T19:16:43.360Z,2.23
2019-05-25T19:19:47.688Z,4.67
2019-05-25T19:22:52.110Z,4.23
2019-05-25T19:25:56.432Z,3.17
2019-05-25T19:29:00.445Z,7.23
2019-05-25T19:32:04.552Z,6.30
2019-05-25T19:35:09.813Z,3.13
2019-05-25T19:38:13.759Z,6.73
2019-05-25T19:41:18.675Z,3.90
2019-05-25T19:44:23.292Z,3.17
2019-05-25T19:47:27.641Z,5.27
2019-05-25T19:50:31.660Z,3.67
2019-05-25T19:53:35.892Z,4.90
2019-05-25T19:56:39.914Z,7.27
2019-05-25T19:59:44.117Z,5.83
2019-05-25T20:02:48.638Z,6.87
2019-05-25T20:05:53.342Z,8.33
2019-05-25T20:08:57.670Z,4.57
2019-05-25T20:12:02.527Z,6.30
2019-05-25T20:15:07.136Z,4.53
2019-05-25T20:18:11.140Z,6.60
2019-05-25T20:21:15.404Z,7.37
2019-05-25T20:24:19.931Z,10.63
2019-05-25T20:27:24.285Z,4.93
2019-05-25T20:30:28.653Z,6.90
2019-05-25T20:33:35.000Z,7.17
2019-05-25T20:36:38.905Z,3.67
2019-05-25T20:39:42.940Z,7.73
2019-05-25T20:42:47.362Z,5.23
2019-05-25T20:45:51.328Z,6.60
2019-05-25T20:48:55.264Z,8.30
2019-05-25T20:51:59.445Z,6.73
2019-05-25T20:55:04.045Z,7.60
2019-05-25T20:58:08.138Z,8.33
2019-05-25T21:01:12.641Z,10.40
2019-05-25T21:04:17.008Z,5.83
2019-05-25T21:07:21.287Z,6.63
2019-05-25T21:10:25.182Z,7.67
2019-05-25T21:13:29.137Z,9.10
2019-05-25T21:16:33.903Z,9.50
2019-05-25T21:19:38.333Z,7.47
2019-05-25T21:22:42.559Z,6.80
2019-05-25T21:25:46.988Z,8.47
2019-05-25T21:28:51.388Z,7.17
2019-05-25T21:31:55.669Z,7.63
2019-05-25T21:34:59.828Z,10.37
2019-05-25T21:38:03.784Z,11.27
2019-05-25T21:41:08.677Z,8.50
2019-05-25T21:44:12.628Z,7.23
2019-05-25T21:47:16.599Z,9.53
2019-05-25T21:50:20.665Z,10.43
2019-05-25T21:53:24.696Z,12.27
2019-05-25T21:56:28.685Z,7.00
2019-05-25T21:59:33.001Z,11.43
2019-05-25T22:02:37.133Z,8.30
2019-05-25T22:05:41.397Z,7.40
2019-05-25T22:08:45.300Z,9.40
2019-05-25T22:11:49.292Z,7.87
2019-05-25T22:14:53.663Z,7.13
2019-05-25T22:17:57.933Z,6.37
2019-05-25T22:21:02.011Z,7.73
2019-05-25T22:24:06.047Z,8.93
2019-05-25T22:27:10.505Z,7.10
2019-05-25T22:30:15.172Z,6.77
2019-05-25T22:33:21.697Z,7.87
2019-05-25T22:36:39.210Z,7.27
2019-05-25T22:39:31.380Z,6.60
2019-05-25T22:42:35.434Z,9.20
2019-05-25T22:45:39.316Z,6.50
2019-05-25T22:48:49.087Z,7.00
2019-05-25T22:51:53.117Z,6.67
2019-05-25T22:54:57.095Z,10.60
2019-05-25T22:58:01.639Z,7.77
2019-05-25T23:01:05.655Z,6.97
2019-05-25T23:04:09.843Z,8.63
2019-05-25T23:07:14.213Z,6.50
2019-05-25T23:10:18.718Z,8.83
2019-05-25T23:13:22.924Z,9.00
2019-05-25T23:16:27.175Z,9.47
2019-05-25T23:19:31.458Z,8.33
2019-05-25T23:22:35.511Z,6.60
2019-05-25T23:25:39.788Z,9.43
2019-05-25T23:28:44.117Z,8.00
2019-05-25T23:31:47.975Z,7.10
2019-05-25T23:34:51.919Z,6.83
2019-05-25T23:37:56.261Z,12.33
2019-05-25T23:41:00.284Z,8.63
2019-05-25T23:44:04.288Z,11.67
2019-05-25T23:47:08.575Z,7.83
2019-05-25T23:50:13.136Z,11.13
2019-05-25T23:53:17.086Z,7.07
2019-05-25T23:56:21.013Z,7.73
2019-05-25T23:59:25.583Z,8.43
